sensor_id;sensor_type;location;lat;lon;timestamp;temperature;humidity
10968;DHT22;5536;49.602;10.980;2023-05-07T00:02:20;14.10;99.90
10968;DHT22;5536;49.602;10.980;2023-05-07T00:04:47;14.20;99.90
10968;DHT22;5536;49.602;10.980;2023-05-07T00:07:14;14.40;99.90
10968;DHT22;5536;49.602;10.980;2023-05-07T00:09:41;14.50;99.90
10968;DHT22;5536;49.602;10.980;2023-05-07T00:12:08;14.60;99.90
10968;DHT22;5536;49.602;10.980;2023-05-07T00:14:35;14.60;99.90
10968;DHT22;5536;49.602;10.980;2023-05-07T00:17:02;14.50;99.90
10968;DHT22;5536;49.602;10.980;2023-05-07T00:19:31;14.50;99.90
10968;DHT22;5536;49.602;10.980;2023-05-07T00:21:58;14.50;99.90
10968;DHT22;5536;49.602;10.980;2023-05-07T00:24:25;14.60;99.90
10968;DHT22;5536;49.602;10.980;2023-05-07T00:26:52;14.40;99.90
10968;DHT22;5536;49.602;10.980;2023-05-07T00:29:19;14.40;99.90
10968;DHT22;5536;49.602;10.980;2023-05-07T00:31:46;14.40;99.90
10968;DHT22;5536;49.602;10.980;2023-05-07T00:34:15;14.40;99.90
10968;DHT22;5536;49.602;10.980;2023-05-07T00:36:44;14.40;99.90
10968;DHT22;5536;49.602;10.980;2023-05-07T00:39:11;14.50;99.90
10968;DHT22;5536;49.602;10.980;2023-05-07T00:41:38;14.50;99.90
10968;DHT22;5536;49.602;10.980;2023-05-07T00:44:05;14.50;99.90
10968;DHT22;5536;49.602;10.980;2023-05-07T00:46:32;14.50;99.90
10968;DHT22;5536;49.602;10.980;2023-05-07T00:49:00;14.60;99.90
10968;DHT22;5536;49.602;10.980;2023-05-07T00:51:28;14.50;99.90
10968;DHT22;5536;49.602;10.980;2023-05-07T00:53:57;14.50;99.90
10968;DHT22;5536;49.602;10.980;2023-05-07T00:56:24;14.40;99.90
10968;DHT22;5536;49.602;10.980;2023-05-07T00:58:51;14.40;99.90
10968;DHT22;5536;49.602;10.980;2023-05-07T01:01:19;14.30;99.90
10968;DHT22;5536;49.602;10.980;2023-05-07T01:03:46;14.40;99.90
10968;DHT22;5536;49.602;10.980;2023-05-07T01:06:13;14.40;99.90
10968;DHT22;5536;49.602;10.980;2023-05-07T01:08:42;14.30;99.90
10968;DHT22;5536;49.602;10.980;2023-05-07T01:11:11;14.20;99.90
10968;DHT22;5536;49.602;10.980;2023-05-07T01:13:39;14.10;99.90
10968;DHT22;5536;49.602;10.980;2023-05-07T01:16:08;14.00;99.90
10968;DHT22;5536;49.602;10.980;2023-05-07T01:18:36;14.00;99.90
10968;DHT22;5536;49.602;10.980;2023-05-07T01:21:04;13.90;99.90
10968;DHT22;5536;49.602;10.980;2023-05-07T01:23:33;14.00;99.90
10968;DHT22;5536;49.602;10.980;2023-05-07T01:26:02;13.90;99.90
10968;DHT22;5536;49.602;10.980;2023-05-07T01:28:29;13.90;99.90
10968;DHT22;5536;49.602;10.980;2023-05-07T01:31:00;13.90;99.90
10968;DHT22;5536;49.602;10.980;2023-05-07T01:33:31;13.90;99.90
10968;DHT22;5536;49.602;10.980;2023-05-07T01:35:59;13.90;99.90
10968;DHT22;5536;49.602;10.980;2023-05-07T01:38:29;13.90;99.90
10968;DHT22;5536;49.602;10.980;2023-05-07T01:40:58;13.90;99.90
10968;DHT22;5536;49.602;10.980;2023-05-07T01:43:25;13.90;99.90
10968;DHT22;5536;49.602;10.980;2023-05-07T01:45:52;14.00;99.90
10968;DHT22;5536;49.602;10.980;2023-05-07T01:48:20;14.00;99.90
10968;DHT22;5536;49.602;10.980;2023-05-07T01:50:48;14.00;99.90
10968;DHT22;5536;49.602;10.980;2023-05-07T01:53:15;14.00;99.90
10968;DHT22;5536;49.602;10.980;2023-05-07T01:55:43;14.00;99.90
10968;DHT22;5536;49.602;10.980;2023-05-07T01:58:12;14.00;99.90
10968;DHT22;5536;49.602;10.980;2023-05-07T02:00:39;14.00;99.90
10968;DHT22;5536;49.602;10.980;2023-05-07T02:03:06;13.90;99.90
10968;DHT22;5536;49.602;10.980;2023-05-07T02:05:33;13.90;99.90
10968;DHT22;5536;49.602;10.980;2023-05-07T02:08:00;13.80;99.90
10968;DHT22;5536;49.602;10.980;2023-05-07T02:10:27;13.70;99.90
10968;DHT22;5536;49.602;10.980;2023-05-07T02:12:55;13.80;99.90
10968;DHT22;5536;49.602;10.980;2023-05-07T02:15:23;14.00;99.90
10968;DHT22;5536;49.602;10.980;2023-05-07T02:18:01;14.00;99.90
10968;DHT22;5536;49.602;10.980;2023-05-07T02:20:28;14.10;99.90
10968;DHT22;5536;49.602;10.980;2023-05-07T02:22:56;14.10;99.90
10968;DHT22;5536;49.602;10.980;2023-05-07T02:25:23;14.00;99.90
10968;DHT22;5536;49.602;10.980;2023-05-07T02:27:50;14.00;99.90
10968;DHT22;5536;49.602;10.980;2023-05-07T02:30:17;13.70;99.90
10968;DHT22;5536;49.602;10.980;2023-05-07T02:32:48;13.40;99.90
10968;DHT22;5536;49.602;10.980;2023-05-07T02:35:15;13.40;99.90
10968;DHT22;5536;49.602;10.980;2023-05-07T02:37:42;13.50;99.90
10968;DHT22;5536;49.602;10.980;2023-05-07T02:40:11;13.60;99.90
10968;DHT22;5536;49.602;10.980;2023-05-07T02:42:38;13.70;99.90
10968;DHT22;5536;49.602;10.980;2023-05-07T02:45:06;13.90;99.90
10968;DHT22;5536;49.602;10.980;2023-05-07T02:47:33;13.90;99.90
10968;DHT22;5536;49.602;10.980;2023-05-07T02:50:01;13.90;99.90
10968;DHT22;5536;49.602;10.980;2023-05-07T02:52:29;13.80;99.90
10968;DHT22;5536;49.602;10.980;2023-05-07T02:54:56;13.80;99.90
10968;DHT22;5536;49.602;10.980;2023-05-07T02:57:23;13.70;99.90
10968;DHT22;5536;49.602;10.980;2023-05-07T02:59:51;13.70;99.90
10968;DHT22;5536;49.602;10.980;2023-05-07T03:02:18;13.60;99.90
10968;DHT22;5536;49.602;10.980;2023-05-07T03:04:45;13.50;99.90
10968;DHT22;5536;49.602;10.980;2023-05-07T03:07:14;13.40;99.90
10968;DHT22;5536;49.602;10.980;2023-05-07T03:09:41;13.20;99.90
10968;DHT22;5536;49.602;10.980;2023-05-07T03:12:08;13.20;99.90
10968;DHT22;5536;49.602;10.980;2023-05-07T03:14:35;13.40;99.90
10968;DHT22;5536;49.602;10.980;2023-05-07T03:17:02;13.40;99.90
10968;DHT22;5536;49.602;10.980;2023-05-07T03:19:29;13.30;99.90
10968;DHT22;5536;49.602;10.980;2023-05-07T03:21:57;13.30;99.90
10968;DHT22;5536;49.602;10.980;2023-05-07T03:24:25;13.10;99.90
10968;DHT22;5536;49.602;10.980;2023-05-07T03:26:52;13.00;99.90
10968;DHT22;5536;49.602;10.980;2023-05-07T03:29:19;12.90;99.90
10968;DHT22;5536;49.602;10.980;2023-05-07T03:31:46;12.80;99.90
10968;DHT22;5536;49.602;10.980;2023-05-07T03:34:13;12.70;99.90
10968;DHT22;5536;49.602;10.980;2023-05-07T03:36:40;12.80;99.90
10968;DHT22;5536;49.602;10.980;2023-05-07T03:39:07;12.90;99.90
10968;DHT22;5536;49.602;10.980;2023-05-07T03:41:36;12.90;99.90
10968;DHT22;5536;49.602;10.980;2023-05-07T03:44:03;12.80;99.90
10968;DHT22;5536;49.602;10.980;2023-05-07T03:46:31;12.80;99.90
10968;DHT22;5536;49.602;10.980;2023-05-07T03:48:58;12.60;99.90
10968;DHT22;5536;49.602;10.980;2023-05-07T03:51:25;12.60;99.90
10968;DHT22;5536;49.602;10.980;2023-05-07T03:53:52;12.60;99.90
10968;DHT22;5536;49.602;10.980;2023-05-07T03:56:20;12.50;99.90
10968;DHT22;5536;49.602;10.980;2023-05-07T03:58:48;12.50;99.90
10968;DHT22;5536;49.602;10.980;2023-05-07T04:01:16;12.60;99.90
10968;DHT22;5536;49.602;10.980;2023-05-07T04:03:42;12.70;99.90
10968;DHT22;5536;49.602;10.980;2023-05-07T04:06:09;12.70;99.90
10968;DHT22;5536;49.602;10.980;2023-05-07T04:08:37;12.70;99.90
10968;DHT22;5536;49.602;10.980;2023-05-07T04:11:04;12.70;99.90
10968;DHT22;5536;49.602;10.980;2023-05-07T04:13:31;12.80;99.90
10968;DHT22;5536;49.602;10.980;2023-05-07T04:16:01;12.70;99.90
10968;DHT22;5536;49.602;10.980;2023-05-07T04:18:28;12.60;99.90
10968;DHT22;5536;49.602;10.980;2023-05-07T04:20:55;12.70;99.90
10968;DHT22;5536;49.602;10.980;2023-05-07T04:23:23;12.60;99.90
10968;DHT22;5536;49.602;10.980;2023-05-07T04:25:50;12.50;99.90
10968;DHT22;5536;49.602;10.980;2023-05-07T04:28:18;12.40;99.90
10968;DHT22;5536;49.602;10.980;2023-05-07T04:30:45;12.50;99.90
10968;DHT22;5536;49.602;10.980;2023-05-07T04:33:14;12.70;99.90
10968;DHT22;5536;49.602;10.980;2023-05-07T04:35:42;12.60;99.90
10968;DHT22;5536;49.602;10.980;2023-05-07T04:38:09;12.50;99.90
10968;DHT22;5536;49.602;10.980;2023-05-07T04:40:36;12.40;99.90
10968;DHT22;5536;49.602;10.980;2023-05-07T04:43:04;12.50;99.90
10968;DHT22;5536;49.602;10.980;2023-05-07T04:45:31;12.80;99.90
10968;DHT22;5536;49.602;10.980;2023-05-07T04:47:58;13.00;99.90
10968;DHT22;5536;49.602;10.980;2023-05-07T04:50:27;12.90;99.90
10968;DHT22;5536;49.602;10.980;2023-05-07T04:52:54;13.00;99.90
10968;DHT22;5536;49.602;10.980;2023-05-07T04:55:21;13.20;99.90
10968;DHT22;5536;49.602;10.980;2023-05-07T04:57:48;13.30;99.90
10968;DHT22;5536;49.602;10.980;2023-05-07T05:00:15;13.40;99.90
10968;DHT22;5536;49.602;10.980;2023-05-07T05:02:45;13.60;99.90
10968;DHT22;5536;49.602;10.980;2023-05-07T05:05:12;13.70;99.90
10968;DHT22;5536;49.602;10.980;2023-05-07T05:07:40;13.90;99.90
10968;DHT22;5536;49.602;10.980;2023-05-07T05:10:07;14.00;99.90
10968;DHT22;5536;49.602;10.980;2023-05-07T05:12:34;14.10;99.90
10968;DHT22;5536;49.602;10.980;2023-05-07T05:15:01;14.10;99.90
10968;DHT22;5536;49.602;10.980;2023-05-07T05:17:28;14.00;99.90
10968;DHT22;5536;49.602;10.980;2023-05-07T05:19:55;14.10;99.90
10968;DHT22;5536;49.602;10.980;2023-05-07T05:22:22;14.20;99.90
10968;DHT22;5536;49.602;10.980;2023-05-07T05:24:52;14.30;99.90
10968;DHT22;5536;49.602;10.980;2023-05-07T05:27:19;14.30;99.90
10968;DHT22;5536;49.602;10.980;2023-05-07T05:29:46;14.20;99.90
10968;DHT22;5536;49.602;10.980;2023-05-07T05:32:13;14.10;99.90
10968;DHT22;5536;49.602;10.980;2023-05-07T05:34:40;14.10;99.90
10968;DHT22;5536;49.602;10.980;2023-05-07T05:37:07;14.00;99.90
10968;DHT22;5536;49.602;10.980;2023-05-07T05:39:34;14.00;99.90
10968;DHT22;5536;49.602;10.980;2023-05-07T05:42:02;14.20;99.90
10968;DHT22;5536;49.602;10.980;2023-05-07T05:44:29;14.30;99.90
10968;DHT22;5536;49.602;10.980;2023-05-07T05:46:57;14.30;99.90
10968;DHT22;5536;49.602;10.980;2023-05-07T05:49:25;14.40;99.90
10968;DHT22;5536;49.602;10.980;2023-05-07T05:51:51;14.40;99.90
10968;DHT22;5536;49.602;10.980;2023-05-07T05:54:19;14.40;99.90
10968;DHT22;5536;49.602;10.980;2023-05-07T05:56:46;14.50;99.90
10968;DHT22;5536;49.602;10.980;2023-05-07T05:59:14;14.50;99.90
10968;DHT22;5536;49.602;10.980;2023-05-07T06:01:41;14.60;99.90
10968;DHT22;5536;49.602;10.980;2023-05-07T06:04:08;14.70;99.90
10968;DHT22;5536;49.602;10.980;2023-05-07T06:06:35;14.60;99.90
10968;DHT22;5536;49.602;10.980;2023-05-07T06:09:02;14.80;99.90
10968;DHT22;5536;49.602;10.980;2023-05-07T06:11:29;14.90;99.90
10968;DHT22;5536;49.602;10.980;2023-05-07T06:13:58;15.00;99.90
10968;DHT22;5536;49.602;10.980;2023-05-07T06:16:26;15.10;99.90
10968;DHT22;5536;49.602;10.980;2023-05-07T06:18:53;15.30;99.90
10968;DHT22;5536;49.602;10.980;2023-05-07T06:21:20;15.40;99.90
10968;DHT22;5536;49.602;10.980;2023-05-07T06:23:47;15.40;99.90
10968;DHT22;5536;49.602;10.980;2023-05-07T06:26:14;15.40;99.90
10968;DHT22;5536;49.602;10.980;2023-05-07T06:28:41;15.50;99.90
10968;DHT22;5536;49.602;10.980;2023-05-07T06:31:12;15.50;99.90
10968;DHT22;5536;49.602;10.980;2023-05-07T06:33:41;15.50;99.90
10968;DHT22;5536;49.602;10.980;2023-05-07T06:36:08;15.60;99.90
10968;DHT22;5536;49.602;10.980;2023-05-07T06:38:35;15.60;99.90
10968;DHT22;5536;49.602;10.980;2023-05-07T06:41:02;15.70;99.90
10968;DHT22;5536;49.602;10.980;2023-05-07T06:43:29;15.80;99.90
10968;DHT22;5536;49.602;10.980;2023-05-07T06:45:56;15.80;99.90
10968;DHT22;5536;49.602;10.980;2023-05-07T06:48:23;15.80;99.90
10968;DHT22;5536;49.602;10.980;2023-05-07T06:50:51;15.90;99.90
10968;DHT22;5536;49.602;10.980;2023-05-07T06:53:20;16.00;99.90
10968;DHT22;5536;49.602;10.980;2023-05-07T06:55:47;16.00;99.90
10968;DHT22;5536;49.602;10.980;2023-05-07T06:58:14;16.20;99.90
10968;DHT22;5536;49.602;10.980;2023-05-07T07:00:41;16.30;99.90
10968;DHT22;5536;49.602;10.980;2023-05-07T07:03:08;16.30;99.90
10968;DHT22;5536;49.602;10.980;2023-05-07T07:05:35;16.40;99.90
10968;DHT22;5536;49.602;10.980;2023-05-07T07:08:04;16.50;99.90
10968;DHT22;5536;49.602;10.980;2023-05-07T07:10:31;16.60;99.90
10968;DHT22;5536;49.602;10.980;2023-05-07T07:12:58;16.70;99.90
10968;DHT22;5536;49.602;10.980;2023-05-07T07:15:25;16.80;99.90
10968;DHT22;5536;49.602;10.980;2023-05-07T07:17:52;16.80;99.90
10968;DHT22;5536;49.602;10.980;2023-05-07T07:20:19;16.80;99.90
10968;DHT22;5536;49.602;10.980;2023-05-07T07:22:46;16.80;99.90
10968;DHT22;5536;49.602;10.980;2023-05-07T07:25:14;16.90;99.90
10968;DHT22;5536;49.602;10.980;2023-05-07T07:27:41;16.90;99.90
10968;DHT22;5536;49.602;10.980;2023-05-07T07:30:09;17.00;99.90
10968;DHT22;5536;49.602;10.980;2023-05-07T07:32:37;17.10;99.90
10968;DHT22;5536;49.602;10.980;2023-05-07T07:35:07;17.20;99.90
10968;DHT22;5536;49.602;10.980;2023-05-07T07:37:34;17.20;99.90
10968;DHT22;5536;49.602;10.980;2023-05-07T07:40:01;17.30;99.90
10968;DHT22;5536;49.602;10.980;2023-05-07T07:42:30;17.50;99.90
10968;DHT22;5536;49.602;10.980;2023-05-07T07:44:57;17.40;99.90
10968;DHT22;5536;49.602;10.980;2023-05-07T07:47:24;17.40;99.90
10968;DHT22;5536;49.602;10.980;2023-05-07T07:49:51;17.30;99.90
10968;DHT22;5536;49.602;10.980;2023-05-07T07:52:18;17.30;99.90
10968;DHT22;5536;49.602;10.980;2023-05-07T07:54:45;17.40;99.90
10968;DHT22;5536;49.602;10.980;2023-05-07T07:57:12;17.30;99.90
10968;DHT22;5536;49.602;10.980;2023-05-07T07:59:40;17.20;99.90
10968;DHT22;5536;49.602;10.980;2023-05-07T08:02:09;17.30;99.90
10968;DHT22;5536;49.602;10.980;2023-05-07T08:04:36;17.40;99.90
10968;DHT22;5536;49.602;10.980;2023-05-07T08:07:03;17.30;99.90
10968;DHT22;5536;49.602;10.980;2023-05-07T08:09:30;17.40;99.90
10968;DHT22;5536;49.602;10.980;2023-05-07T08:11:57;17.50;99.90
10968;DHT22;5536;49.602;10.980;2023-05-07T08:14:24;17.70;99.90
10968;DHT22;5536;49.602;10.980;2023-05-07T08:16:52;17.80;99.90
10968;DHT22;5536;49.602;10.980;2023-05-07T08:19:19;18.00;99.90
10968;DHT22;5536;49.602;10.980;2023-05-07T08:21:47;18.10;99.90
10968;DHT22;5536;49.602;10.980;2023-05-07T08:24:15;18.30;99.90
10968;DHT22;5536;49.602;10.980;2023-05-07T08:26:42;18.30;99.90
10968;DHT22;5536;49.602;10.980;2023-05-07T08:29:09;18.30;99.90
10968;DHT22;5536;49.602;10.980;2023-05-07T08:31:36;18.30;99.90
10968;DHT22;5536;49.602;10.980;2023-05-07T08:34:05;18.30;99.90
10968;DHT22;5536;49.602;10.980;2023-05-07T08:36:33;18.20;99.90
10968;DHT22;5536;49.602;10.980;2023-05-07T08:39:00;18.20;99.90
10968;DHT22;5536;49.602;10.980;2023-05-07T08:41:28;18.30;99.90
10968;DHT22;5536;49.602;10.980;2023-05-07T08:43:57;18.30;99.90
10968;DHT22;5536;49.602;10.980;2023-05-07T08:46:25;18.40;99.90
10968;DHT22;5536;49.602;10.980;2023-05-07T08:48:52;18.40;99.90
10968;DHT22;5536;49.602;10.980;2023-05-07T08:51:21;18.50;99.90
10968;DHT22;5536;49.602;10.980;2023-05-07T08:53:49;18.70;99.90
10968;DHT22;5536;49.602;10.980;2023-05-07T08:56:17;18.80;99.90
10968;DHT22;5536;49.602;10.980;2023-05-07T08:58:46;18.80;99.90
10968;DHT22;5536;49.602;10.980;2023-05-07T09:01:14;18.80;99.90
10968;DHT22;5536;49.602;10.980;2023-05-07T09:03:42;19.00;99.90
10968;DHT22;5536;49.602;10.980;2023-05-07T09:06:10;19.00;99.90
10968;DHT22;5536;49.602;10.980;2023-05-07T09:08:39;19.20;99.90
10968;DHT22;5536;49.602;10.980;2023-05-07T09:11:06;19.40;99.90
10968;DHT22;5536;49.602;10.980;2023-05-07T09:13:33;19.30;99.90
10968;DHT22;5536;49.602;10.980;2023-05-07T09:16:10;19.40;99.90
10968;DHT22;5536;49.602;10.980;2023-05-07T09:18:41;19.20;99.90
10968;DHT22;5536;49.602;10.980;2023-05-07T09:21:10;19.30;99.90
10968;DHT22;5536;49.602;10.980;2023-05-07T09:23:39;19.40;99.90
10968;DHT22;5536;49.602;10.980;2023-05-07T09:26:06;19.40;99.90
10968;DHT22;5536;49.602;10.980;2023-05-07T09:28:39;19.50;99.90
10968;DHT22;5536;49.602;10.980;2023-05-07T09:31:07;19.60;99.90
10968;DHT22;5536;49.602;10.980;2023-05-07T09:33:34;19.90;99.90
10968;DHT22;5536;49.602;10.980;2023-05-07T09:36:05;20.10;99.90
10968;DHT22;5536;49.602;10.980;2023-05-07T09:38:32;20.20;99.90
10968;DHT22;5536;49.602;10.980;2023-05-07T09:41:05;20.40;99.90
10968;DHT22;5536;49.602;10.980;2023-05-07T09:43:33;20.30;99.90
10968;DHT22;5536;49.602;10.980;2023-05-07T09:46:03;20.20;99.90
10968;DHT22;5536;49.602;10.980;2023-05-07T09:48:30;20.20;99.90
10968;DHT22;5536;49.602;10.980;2023-05-07T09:51:01;20.40;99.90
10968;DHT22;5536;49.602;10.980;2023-05-07T09:53:29;20.60;99.90
10968;DHT22;5536;49.602;10.980;2023-05-07T09:55:57;20.70;99.90
10968;DHT22;5536;49.602;10.980;2023-05-07T09:58:27;20.90;99.90
10968;DHT22;5536;49.602;10.980;2023-05-07T10:00:55;20.90;99.90
10968;DHT22;5536;49.602;10.980;2023-05-07T10:03:24;20.90;99.90
10968;DHT22;5536;49.602;10.980;2023-05-07T10:05:54;21.00;99.90
10968;DHT22;5536;49.602;10.980;2023-05-07T10:08:22;21.10;99.90
10968;DHT22;5536;49.602;10.980;2023-05-07T10:10:49;21.00;99.90
10968;DHT22;5536;49.602;10.980;2023-05-07T10:13:17;21.20;99.90
10968;DHT22;5536;49.602;10.980;2023-05-07T10:15:47;21.20;99.90
10968;DHT22;5536;49.602;10.980;2023-05-07T10:18:15;21.10;99.90
10968;DHT22;5536;49.602;10.980;2023-05-07T10:20:44;21.30;99.90
10968;DHT22;5536;49.602;10.980;2023-05-07T10:23:14;21.50;99.90
10968;DHT22;5536;49.602;10.980;2023-05-07T10:25:45;21.80;99.90
10968;DHT22;5536;49.602;10.980;2023-05-07T10:28:12;21.90;99.90
10968;DHT22;5536;49.602;10.980;2023-05-07T10:30:54;22.10;99.90
10968;DHT22;5536;49.602;10.980;2023-05-07T10:33:28;21.90;99.90
10968;DHT22;5536;49.602;10.980;2023-05-07T10:35:58;21.60;99.90
10968;DHT22;5536;49.602;10.980;2023-05-07T10:38:27;21.40;99.90
10968;DHT22;5536;49.602;10.980;2023-05-07T10:40:54;21.50;99.90
10968;DHT22;5536;49.602;10.980;2023-05-07T10:43:21;21.70;99.90
10968;DHT22;5536;49.602;10.980;2023-05-07T10:46:10;21.70;99.90
10968;DHT22;5536;49.602;10.980;2023-05-07T10:49:08;22.20;99.90
10968;DHT22;5536;49.602;10.980;2023-05-07T10:51:37;22.80;99.90
10968;DHT22;5536;49.602;10.980;2023-05-07T10:54:23;22.80;99.90
10968;DHT22;5536;49.602;10.980;2023-05-07T10:56:52;22.40;99.90
10968;DHT22;5536;49.602;10.980;2023-05-07T10:59:34;22.20;99.90
10968;DHT22;5536;49.602;10.980;2023-05-07T11:02:09;22.00;99.90
10968;DHT22;5536;49.602;10.980;2023-05-07T11:04:37;22.10;99.90
10968;DHT22;5536;49.602;10.980;2023-05-07T11:07:28;22.60;99.90
10968;DHT22;5536;49.602;10.980;2023-05-07T11:09:57;22.60;99.90
10968;DHT22;5536;49.602;10.980;2023-05-07T11:12:54;22.60;99.90
10968;DHT22;5536;49.602;10.980;2023-05-07T11:18:21;23.20;99.90
10968;DHT22;5536;49.602;10.980;2023-05-07T11:20:53;23.80;99.90
10968;DHT22;5536;49.602;10.980;2023-05-07T11:26:47;23.70;99.90
10968;DHT22;5536;49.602;10.980;2023-05-07T11:29:18;23.30;99.90
10968;DHT22;5536;49.602;10.980;2023-05-07T11:31:49;24.10;99.90
10968;DHT22;5536;49.602;10.980;2023-05-07T11:34:22;24.80;99.90
10968;DHT22;5536;49.602;10.980;2023-05-07T11:36:50;24.70;99.90
10968;DHT22;5536;49.602;10.980;2023-05-07T11:39:24;25.20;99.90
10968;DHT22;5536;49.602;10.980;2023-05-07T11:41:51;24.80;99.90
10968;DHT22;5536;49.602;10.980;2023-05-07T11:44:18;24.70;99.90
10968;DHT22;5536;49.602;10.980;2023-05-07T11:46:45;24.70;99.90
10968;DHT22;5536;49.602;10.980;2023-05-07T11:49:12;24.80;99.90
10968;DHT22;5536;49.602;10.980;2023-05-07T11:51:41;24.50;99.90
10968;DHT22;5536;49.602;10.980;2023-05-07T11:54:08;24.40;99.90
10968;DHT22;5536;49.602;10.980;2023-05-07T11:56:37;24.20;99.90
10968;DHT22;5536;49.602;10.980;2023-05-07T11:59:04;23.90;99.90
10968;DHT22;5536;49.602;10.980;2023-05-07T12:01:31;23.80;99.90
10968;DHT22;5536;49.602;10.980;2023-05-07T12:03:59;23.90;99.90
10968;DHT22;5536;49.602;10.980;2023-05-07T12:06:29;23.80;99.90
10968;DHT22;5536;49.602;10.980;2023-05-07T12:08:58;23.90;99.90
10968;DHT22;5536;49.602;10.980;2023-05-07T12:11:26;24.10;99.90
10968;DHT22;5536;49.602;10.980;2023-05-07T12:13:54;24.50;99.90
10968;DHT22;5536;49.602;10.980;2023-05-07T12:16:22;24.90;99.90
10968;DHT22;5536;49.602;10.980;2023-05-07T12:18:50;25.20;99.90
10968;DHT22;5536;49.602;10.980;2023-05-07T12:21:18;25.60;99.90
10968;DHT22;5536;49.602;10.980;2023-05-07T12:23:45;26.20;99.90
10968;DHT22;5536;49.602;10.980;2023-05-07T12:26:13;26.10;99.90
10968;DHT22;5536;49.602;10.980;2023-05-07T12:28:41;25.70;99.90
10968;DHT22;5536;49.602;10.980;2023-05-07T12:31:08;25.30;99.90
10968;DHT22;5536;49.602;10.980;2023-05-07T12:33:36;26.00;99.90
10968;DHT22;5536;49.602;10.980;2023-05-07T12:36:05;26.60;99.90
10968;DHT22;5536;49.602;10.980;2023-05-07T12:38:37;27.00;99.90
10968;DHT22;5536;49.602;10.980;2023-05-07T12:41:05;27.00;99.90
10968;DHT22;5536;49.602;10.980;2023-05-07T12:43:34;27.20;99.90
10968;DHT22;5536;49.602;10.980;2023-05-07T12:46:05;27.80;99.90
10968;DHT22;5536;49.602;10.980;2023-05-07T12:48:32;27.80;99.90
10968;DHT22;5536;49.602;10.980;2023-05-07T12:51:00;28.00;99.90
10968;DHT22;5536;49.602;10.980;2023-05-07T12:53:29;27.90;99.90
10968;DHT22;5536;49.602;10.980;2023-05-07T12:55:58;28.00;99.90
10968;DHT22;5536;49.602;10.980;2023-05-07T12:58:27;28.60;99.90
10968;DHT22;5536;49.602;10.980;2023-05-07T13:00:56;28.90;99.90
10968;DHT22;5536;49.602;10.980;2023-05-07T13:03:26;28.40;99.90
10968;DHT22;5536;49.602;10.980;2023-05-07T13:05:55;28.50;99.90
10968;DHT22;5536;49.602;10.980;2023-05-07T13:08:30;28.80;99.90
10968;DHT22;5536;49.602;10.980;2023-05-07T13:10:58;28.70;99.90
10968;DHT22;5536;49.602;10.980;2023-05-07T13:13:28;27.70;99.90
10968;DHT22;5536;49.602;10.980;2023-05-07T13:15:57;28.10;99.90
10968;DHT22;5536;49.602;10.980;2023-05-07T13:18:24;28.60;99.90
10968;DHT22;5536;49.602;10.980;2023-05-07T13:20:52;29.20;99.90
10968;DHT22;5536;49.602;10.980;2023-05-07T13:23:20;29.00;99.90
10968;DHT22;5536;49.602;10.980;2023-05-07T13:25:47;28.80;99.90
10968;DHT22;5536;49.602;10.980;2023-05-07T13:28:14;28.70;99.90
10968;DHT22;5536;49.602;10.980;2023-05-07T13:30:42;28.80;99.90
10968;DHT22;5536;49.602;10.980;2023-05-07T13:33:10;29.40;99.90
10968;DHT22;5536;49.602;10.980;2023-05-07T13:35:37;28.50;99.90
10968;DHT22;5536;49.602;10.980;2023-05-07T13:38:04;28.60;99.90
10968;DHT22;5536;49.602;10.980;2023-05-07T13:40:31;28.50;99.90
10968;DHT22;5536;49.602;10.980;2023-05-07T13:42:59;29.20;99.90
10968;DHT22;5536;49.602;10.980;2023-05-07T13:45:27;29.40;99.90
10968;DHT22;5536;49.602;10.980;2023-05-07T13:47:55;29.60;99.90
10968;DHT22;5536;49.602;10.980;2023-05-07T13:50:24;29.80;99.90
10968;DHT22;5536;49.602;10.980;2023-05-07T13:52:52;28.70;99.90
10968;DHT22;5536;49.602;10.980;2023-05-07T13:55:20;27.90;99.90
10968;DHT22;5536;49.602;10.980;2023-05-07T13:57:53;28.30;99.90
10968;DHT22;5536;49.602;10.980;2023-05-07T14:00:21;28.70;99.90
10968;DHT22;5536;49.602;10.980;2023-05-07T14:02:48;28.60;99.90
10968;DHT22;5536;49.602;10.980;2023-05-07T14:05:15;28.50;99.90
10968;DHT22;5536;49.602;10.980;2023-05-07T14:07:43;28.70;99.90
10968;DHT22;5536;49.602;10.980;2023-05-07T14:10:11;29.20;99.90
10968;DHT22;5536;49.602;10.980;2023-05-07T14:12:38;29.60;99.90
10968;DHT22;5536;49.602;10.980;2023-05-07T14:15:07;28.60;99.90
10968;DHT22;5536;49.602;10.980;2023-05-07T14:17:34;28.10;99.90
10968;DHT22;5536;49.602;10.980;2023-05-07T14:20:01;27.90;99.90
10968;DHT22;5536;49.602;10.980;2023-05-07T14:22:28;27.20;99.90
10968;DHT22;5536;49.602;10.980;2023-05-07T14:24:56;26.70;99.90
10968;DHT22;5536;49.602;10.980;2023-05-07T14:27:23;26.10;99.90
10968;DHT22;5536;49.602;10.980;2023-05-07T14:29:51;25.40;99.90
10968;DHT22;5536;49.602;10.980;2023-05-07T14:32:18;25.10;99.90
10968;DHT22;5536;49.602;10.980;2023-05-07T14:34:45;25.10;99.90
10968;DHT22;5536;49.602;10.980;2023-05-07T14:37:12;24.90;99.90
10968;DHT22;5536;49.602;10.980;2023-05-07T14:39:40;24.60;99.90
10968;DHT22;5536;49.602;10.980;2023-05-07T14:42:08;24.70;99.90
10968;DHT22;5536;49.602;10.980;2023-05-07T14:44:35;24.60;99.90
10968;DHT22;5536;49.602;10.980;2023-05-07T14:47:02;24.50;99.90
10968;DHT22;5536;49.602;10.980;2023-05-07T14:49:29;25.10;99.90
10968;DHT22;5536;49.602;10.980;2023-05-07T14:51:57;25.80;99.90
10968;DHT22;5536;49.602;10.980;2023-05-07T14:54:25;25.60;99.90
10968;DHT22;5536;49.602;10.980;2023-05-07T14:56:52;25.50;99.90
10968;DHT22;5536;49.602;10.980;2023-05-07T14:59:21;25.30;99.90
10968;DHT22;5536;49.602;10.980;2023-05-07T15:01:50;25.20;99.90
10968;DHT22;5536;49.602;10.980;2023-05-07T15:04:17;25.40;99.90
10968;DHT22;5536;49.602;10.980;2023-05-07T15:06:44;25.50;99.90
10968;DHT22;5536;49.602;10.980;2023-05-07T15:09:11;25.40;99.90
10968;DHT22;5536;49.602;10.980;2023-05-07T15:11:38;25.10;99.90
10968;DHT22;5536;49.602;10.980;2023-05-07T15:14:06;24.80;99.90
10968;DHT22;5536;49.602;10.980;2023-05-07T15:16:34;24.50;99.90
10968;DHT22;5536;49.602;10.980;2023-05-07T15:19:01;24.90;99.90
10968;DHT22;5536;49.602;10.980;2023-05-07T15:21:28;25.20;99.90
10968;DHT22;5536;49.602;10.980;2023-05-07T15:23:56;25.30;99.90
10968;DHT22;5536;49.602;10.980;2023-05-07T15:26:23;24.70;99.90
10968;DHT22;5536;49.602;10.980;2023-05-07T15:28:51;24.40;99.90
10968;DHT22;5536;49.602;10.980;2023-05-07T15:31:18;24.40;99.90
10968;DHT22;5536;49.602;10.980;2023-05-07T15:33:46;24.10;99.90
10968;DHT22;5536;49.602;10.980;2023-05-07T15:36:14;24.00;99.90
10968;DHT22;5536;49.602;10.980;2023-05-07T15:38:41;23.90;99.90
10968;DHT22;5536;49.602;10.980;2023-05-07T15:41:08;23.80;99.90
10968;DHT22;5536;49.602;10.980;2023-05-07T15:43:44;23.70;99.90